Don's Testing Zone


Current Conditions
weather data
source:

National Weather Service
Light T'storms in Vicinity Hot Springs, AR
Light T'storms in Vicinity
Sunday, October 22, 2017 4:38 AM CDT
Temperature: 61°F/16°C
Humidity: 94%
Barometer: 30.01in/1013.3mb Barometer Steady
Wind: W at 3mph/6kmh
View other cities:
Searcy | Little Rock | Hot Springs | Russellville | More...
Astronomical Conditions (Clear Sky Clock)
Searcy Clear Sky Clock
    

Radar Images

NWS
    Wx Underground

NWS METAR weather data

ADDS - METARS form results





Aviation Digital Data Service (ADDS) Output produced by METARs form (0945 UTC 22 October 2017) found at http://www.aviationweather.gov/adds/metars/ 

KHOT 220938Z AUTO 30003KT 5SM VCTS -RA BR BKN075 OVC095 16/15 A3001 RMK AO2 LTGDSNT SE AND S TSE07B17E32 P0016 T01560150 $

KHOT 220923Z AUTO 31003KT 6SM -TSRA BR SCT046 OVC075 15/15 A3001 RMK AO2 LTGDSNT E-SW TSE07B17 P0014 T01500150 $

KHOT 220911Z AUTO 33004KT 3SM VCTS RA BR BKN042 OVC075 15/15 A3001 RMK AO2 LTGDSNT ALQDS TSE07 P0012 T01500150 $

KHOT 220859Z AUTO VRB04KT 2SM +TSRA BR FEW007 FEW019 OVC034 15/15 A3000 RMK AO2LTG DSNT ALQDS P0005 T01500150 $

KHOT 220853Z AUTO VRB04KT 1 1/2SM +TSRA BR FEW007 FEW019 OVC028 15/15 A3002 RMKAO2 PK WND 29038/0806 WSHFT 0802 LTG DSNT ALQDS RAB08 TSE06B09E37B44 SLP160P0064 60064 T01500150 53025 $

KHOT 220850Z AUTO 32007KT 270V360 1 1/2SM +TSRA BR FEW007 FEW019 OVC028 15/15A3001 RMK AO2 PK WND 29038/0806 WSHFT 0802 LTG DSNT ALQDS RAB08 TSE06B09E37B44P0061 $

KHOT 220843Z AUTO 34008KT 1 1/4SM VCTS +RA BR FEW007 FEW013 OVC021 15/15 A3001RMK AO2 PK WND 29038/0806 WSHFT 0802 LTG DSNT ALQDS RAB08 TSE06B09E37 P0051T01500150 $

KHOT 220818Z AUTO 33016G27KT 1 1/4SM +TSRA BR FEW007 BKN017 OVC043 16/15 A3003RMK AO2 PK WND 29038/0806 WSHFT 0802 LTG DSNT ALQDS RAB08 TSE06B09 P0015T01560150

KHOT 220814Z AUTO 33015G38KT 1 3/4SM +TSRA BR FEW010 BKN026 OVC043 17/16 A3002RMK AO2 PK WND 29038/0806 LTG DSNT SW-N RAB08 TSE06B09 P0009 T01670161

KHOT 220753Z AUTO 20007KT 10SM TS BKN020 BKN028 OVC055 24/21 A2994 RMK AO2 LTGDSNT W-N TSB51 SLP133 T02390211

KHOT 220751Z AUTO 20010KT 10SM TS BKN020 BKN041 OVC055 24/21 A2995 RMK AO2 LTGDSNT W-N TSB51

KHOT 220653Z AUTO 19009KT 10SM OVC016 24/22 A2994 RMK AO2 SLP134 T02390217

KHOT 220553Z AUTO 17008G24KT 130V200 10SM OVC017 24/22 A2994 RMK AO2 SLP133T02390217 10256 20239 402780167 58006

KHOT 220453Z AUTO 14008KT 10SM BKN016 OVC021 24/22 A2998 RMK AO2 SLP145T02390217

KHOT 220353Z AUTO 15006KT 10SM FEW018 BKN023 BKN034 24/22 A2997 RMK AO2 SLP144T02390217

KHOT 220342Z AUTO 12005KT 10SM SCT016 BKN023 BKN036 24/22 A2997 RMK AO2T02390217

KHOT 220253Z AUTO 13009KT 10SM CLR 24/22 A2996 RMK AO2 SLP140 T02390217 51001

KHOT 220153Z AUTO 13006G15KT 10SM FEW024 24/22 A2995 RMK AO2 SLP137 T02440217

KHOT 220053Z AUTO 12009KT 10SM CLR 25/22 A2997 RMK AO2 SLP144 T02500217

KHOT 212353Z AUTO 12007KT 10SM BKN075 26/20 A2996 RMK AO2 SLP139 T02560200 1027820228 55002

KHOT 212253Z AUTO 14008KT 10SM OVC070 27/20 A2995 RMK AO2 SLP136 T02670200

KHOT 212153Z AUTO 15004KT 10SM FEW036 SCT070 27/20 A2996 RMK AO2 SLP138T02720200

KHOT 212053Z AUTO 14009KT 10SM OVC065 26/21 A2997 RMK AO2 SLP141 T02610206 56022

KHOT 211953Z AUTO 15009KT 10SM OVC060 24/21 A2998 RMK AO2 SLP146 T02440211

KHOT 211853Z AUTO 16006KT 10SM SCT013 BKN039 OVC048 24/21 A3001 RMK AO2 SLP158T02390206

KHOT 211845Z AUTO 19006KT 10SM SCT013 BKN018 OVC046 24/21 A3001 RMK AO2T02390206

KHOT 211801Z AUTO 15007KT 10SM OVC010 23/21 A3003 RMK AO2 T02280206

KHOT 211753Z AUTO 16007KT 10SM OVC009 23/21 A3003 RMK AO2 CIG 008V013 SLP164T02280206 10228 20200 58004

KHOT 211653Z AUTO VRB05KT 10SM OVC007 22/21 A3005 RMK AO2 SLP173 T02170206

KHOT 211553Z AUTO 19007KT 10SM OVC005 21/20 A3005 RMK AO2 SLP173 T02110200

KHOT 211453Z AUTO 16007G16KT 7SM OVC006 21/20 A3004 RMK AO2 SLP170 T0206020053002

KHOT 211353Z AUTO 16008KT 10SM OVC006 20/19 A3003 RMK AO2 SLP166 T02000194

KHOT 211253Z AUTO 16006G15KT 10SM OVC008 20/19 A3003 RMK AO2 SLP163 T02000189

KHOT 211238Z AUTO 16008G15KT 10SM OVC009 20/19 A3003 RMK AO2 T02000189

KHOT 211153Z AUTO 17007KT 140V210 10SM OVC011 21/19 A3004 RMK AO2 RAB30E39SLP166 P0000 60000 T02060189 10206 20167 53006

KHOT 211053Z AUTO VRB04KT 10SM OVC014 21/18 A3003 RMK AO2 SLP165 T02060183

KHOT 211028Z AUTO 00000KT 10SM BKN014 OVC085 21/18 A3003 RMK AO2 T02060178

KHOT 210953Z AUTO 14006KT 10SM SCT024 SCT041 OVC090 20/17 A3002 RMK AO2 SLP160T02000172